TAF KENW
AMD KENW 082102Z 0821/0918 33007KT P6SM FEW035 FM090000 VRB03KT P6SM FEW250 FM090600 16003KT P6SM BKN200 FM091000 15008KT P6SM BKN200 FM091500 15013G24KT P6SM -SN OVC050=
METAR KENW
WC KENW
WS KENW
WV KENW